sensor_id;sensor_type;location;lat;lon;timestamp;P1;durP1;ratioP1;P2;durP2;ratioP2
20124;SDS011;10223;50.862;4.360;2024-03-22T00:00:58;50.03;;;27.37;;
20124;SDS011;10223;50.862;4.360;2024-03-22T00:03:26;52.13;;;28.47;;
20124;SDS011;10223;50.862;4.360;2024-03-22T00:05:52;45.30;;;26.47;;
20124;SDS011;10223;50.862;4.360;2024-03-22T00:08:19;48.67;;;27.17;;
20124;SDS011;10223;50.862;4.360;2024-03-22T00:10:45;48.30;;;25.37;;
20124;SDS011;10223;50.862;4.360;2024-03-22T00:13:16;37.60;;;22.63;;
20124;SDS011;10223;50.862;4.360;2024-03-22T00:15:42;45.20;;;25.60;;
20124;SDS011;10223;50.862;4.360;2024-03-22T00:18:10;46.90;;;24.40;;
20124;SDS011;10223;50.862;4.360;2024-03-22T00:20:37;45.50;;;24.47;;
20124;SDS011;10223;50.862;4.360;2024-03-22T00:23:04;42.33;;;23.97;;
20124;SDS011;10223;50.862;4.360;2024-03-22T00:25:30;39.77;;;21.87;;
20124;SDS011;10223;50.862;4.360;2024-03-22T00:28:00;40.83;;;22.53;;
20124;SDS011;10223;50.862;4.360;2024-03-22T00:30:26;45.53;;;23.13;;
20124;SDS011;10223;50.862;4.360;2024-03-22T00:32:53;41.77;;;23.90;;
20124;SDS011;10223;50.862;4.360;2024-03-22T00:35:19;39.73;;;24.07;;
20124;SDS011;10223;50.862;4.360;2024-03-22T00:37:47;41.73;;;25.83;;
20124;SDS011;10223;50.862;4.360;2024-03-22T00:40:13;46.73;;;26.17;;
20124;SDS011;10223;50.862;4.360;2024-03-22T00:42:40;42.50;;;24.43;;
20124;SDS011;10223;50.862;4.360;2024-03-22T00:45:06;46.10;;;24.60;;
20124;SDS011;10223;50.862;4.360;2024-03-22T00:47:36;44.13;;;25.77;;
20124;SDS011;10223;50.862;4.360;2024-03-22T00:50:03;50.27;;;25.87;;
20124;SDS011;10223;50.862;4.360;2024-03-22T00:52:31;49.80;;;24.87;;
20124;SDS011;10223;50.862;4.360;2024-03-22T00:54:58;45.23;;;26.50;;
20124;SDS011;10223;50.862;4.360;2024-03-22T00:57:25;43.00;;;24.17;;
20124;SDS011;10223;50.862;4.360;2024-03-22T00:59:51;41.93;;;24.87;;
20124;SDS011;10223;50.862;4.360;2024-03-22T01:02:18;47.97;;;25.47;;
20124;SDS011;10223;50.862;4.360;2024-03-22T01:04:47;52.33;;;25.83;;
20124;SDS011;10223;50.862;4.360;2024-03-22T01:07:13;46.30;;;25.87;;
20124;SDS011;10223;50.862;4.360;2024-03-22T01:09:39;46.17;;;25.93;;
20124;SDS011;10223;50.862;4.360;2024-03-22T01:12:08;46.97;;;25.80;;
20124;SDS011;10223;50.862;4.360;2024-03-22T01:14:34;45.97;;;23.87;;
20124;SDS011;10223;50.862;4.360;2024-03-22T01:17:04;49.30;;;26.80;;
20124;SDS011;10223;50.862;4.360;2024-03-22T01:19:30;47.37;;;26.77;;
20124;SDS011;10223;50.862;4.360;2024-03-22T01:21:57;43.77;;;24.60;;
20124;SDS011;10223;50.862;4.360;2024-03-22T01:24:22;41.73;;;25.57;;
20124;SDS011;10223;50.862;4.360;2024-03-22T01:26:49;48.10;;;26.47;;
20124;SDS011;10223;50.862;4.360;2024-03-22T01:29:17;48.23;;;27.53;;
20124;SDS011;10223;50.862;4.360;2024-03-22T01:31:44;43.17;;;22.73;;
20124;SDS011;10223;50.862;4.360;2024-03-22T01:34:10;44.33;;;24.40;;
20124;SDS011;10223;50.862;4.360;2024-03-22T01:36:37;47.23;;;26.20;;
20124;SDS011;10223;50.862;4.360;2024-03-22T01:39:03;46.17;;;27.00;;
20124;SDS011;10223;50.862;4.360;2024-03-22T01:41:30;50.37;;;27.00;;
20124;SDS011;10223;50.862;4.360;2024-03-22T01:43:59;52.03;;;27.30;;
20124;SDS011;10223;50.862;4.360;2024-03-22T01:46:30;47.23;;;26.47;;
20124;SDS011;10223;50.862;4.360;2024-03-22T01:48:59;48.67;;;24.97;;
20124;SDS011;10223;50.862;4.360;2024-03-22T01:51:27;45.77;;;25.57;;
20124;SDS011;10223;50.862;4.360;2024-03-22T01:53:53;51.77;;;27.00;;
20124;SDS011;10223;50.862;4.360;2024-03-22T01:56:22;43.83;;;24.60;;
20124;SDS011;10223;50.862;4.360;2024-03-22T01:58:48;49.00;;;25.93;;
20124;SDS011;10223;50.862;4.360;2024-03-22T02:01:15;40.43;;;21.10;;
20124;SDS011;10223;50.862;4.360;2024-03-22T02:03:42;44.67;;;25.13;;
20124;SDS011;10223;50.862;4.360;2024-03-22T02:06:09;45.30;;;24.23;;
20124;SDS011;10223;50.862;4.360;2024-03-22T02:08:40;43.53;;;22.57;;
20124;SDS011;10223;50.862;4.360;2024-03-22T02:11:09;45.57;;;26.37;;
20124;SDS011;10223;50.862;4.360;2024-03-22T02:13:35;46.17;;;24.40;;
20124;SDS011;10223;50.862;4.360;2024-03-22T02:16:02;42.10;;;23.13;;
20124;SDS011;10223;50.862;4.360;2024-03-22T02:18:29;43.77;;;24.13;;
20124;SDS011;10223;50.862;4.360;2024-03-22T02:20:57;51.00;;;25.70;;
20124;SDS011;10223;50.862;4.360;2024-03-22T02:23:27;43.37;;;24.93;;
20124;SDS011;10223;50.862;4.360;2024-03-22T02:25:58;43.93;;;25.17;;
20124;SDS011;10223;50.862;4.360;2024-03-22T02:28:24;49.33;;;26.67;;
20124;SDS011;10223;50.862;4.360;2024-03-22T02:30:51;43.97;;;24.30;;
20124;SDS011;10223;50.862;4.360;2024-03-22T02:33:17;43.33;;;24.20;;
20124;SDS011;10223;50.862;4.360;2024-03-22T02:35:45;48.40;;;24.20;;
20124;SDS011;10223;50.862;4.360;2024-03-22T02:38:12;49.30;;;25.70;;
20124;SDS011;10223;50.862;4.360;2024-03-22T02:40:42;43.60;;;23.80;;
20124;SDS011;10223;50.862;4.360;2024-03-22T02:43:08;44.20;;;25.50;;
20124;SDS011;10223;50.862;4.360;2024-03-22T02:45:36;44.60;;;22.77;;
20124;SDS011;10223;50.862;4.360;2024-03-22T02:48:05;49.37;;;23.97;;
20124;SDS011;10223;50.862;4.360;2024-03-22T02:50:35;42.00;;;25.40;;
20124;SDS011;10223;50.862;4.360;2024-03-22T02:53:02;38.83;;;22.53;;
20124;SDS011;10223;50.862;4.360;2024-03-22T02:55:30;41.53;;;22.60;;
20124;SDS011;10223;50.862;4.360;2024-03-22T02:58:02;45.27;;;22.47;;
20124;SDS011;10223;50.862;4.360;2024-03-22T03:00:29;43.57;;;23.73;;
20124;SDS011;10223;50.862;4.360;2024-03-22T03:02:55;44.43;;;24.13;;
20124;SDS011;10223;50.862;4.360;2024-03-22T03:05:23;42.93;;;23.23;;
20124;SDS011;10223;50.862;4.360;2024-03-22T03:07:49;37.93;;;22.53;;
20124;SDS011;10223;50.862;4.360;2024-03-22T03:10:16;41.60;;;22.47;;
20124;SDS011;10223;50.862;4.360;2024-03-22T03:12:42;42.70;;;22.60;;
20124;SDS011;10223;50.862;4.360;2024-03-22T03:15:10;38.53;;;22.67;;
20124;SDS011;10223;50.862;4.360;2024-03-22T03:17:36;39.37;;;22.07;;
20124;SDS011;10223;50.862;4.360;2024-03-22T03:20:05;38.60;;;20.07;;
20124;SDS011;10223;50.862;4.360;2024-03-22T03:22:33;38.43;;;21.23;;
20124;SDS011;10223;50.862;4.360;2024-03-22T03:25:00;35.50;;;20.97;;
20124;SDS011;10223;50.862;4.360;2024-03-22T03:27:26;40.03;;;21.83;;
20124;SDS011;10223;50.862;4.360;2024-03-22T03:29:56;39.57;;;19.93;;
20124;SDS011;10223;50.862;4.360;2024-03-22T03:32:23;37.20;;;19.40;;
20124;SDS011;10223;50.862;4.360;2024-03-22T03:34:51;43.97;;;20.63;;
20124;SDS011;10223;50.862;4.360;2024-03-22T03:37:17;37.97;;;21.63;;
20124;SDS011;10223;50.862;4.360;2024-03-22T03:39:44;35.80;;;19.17;;
20124;SDS011;10223;50.862;4.360;2024-03-22T03:42:10;35.27;;;19.97;;
20124;SDS011;10223;50.862;4.360;2024-03-22T03:44:37;34.90;;;18.23;;
20124;SDS011;10223;50.862;4.360;2024-03-22T03:47:03;34.00;;;18.40;;
20124;SDS011;10223;50.862;4.360;2024-03-22T03:49:31;34.57;;;19.53;;
20124;SDS011;10223;50.862;4.360;2024-03-22T03:51:57;30.87;;;16.37;;
20124;SDS011;10223;50.862;4.360;2024-03-22T03:54:24;36.50;;;17.73;;
20124;SDS011;10223;50.862;4.360;2024-03-22T03:56:50;31.93;;;16.40;;
20124;SDS011;10223;50.862;4.360;2024-03-22T03:59:17;27.90;;;16.63;;
20124;SDS011;10223;50.862;4.360;2024-03-22T04:01:43;35.30;;;16.47;;
20124;SDS011;10223;50.862;4.360;2024-03-22T04:04:10;36.97;;;16.33;;
20124;SDS011;10223;50.862;4.360;2024-03-22T04:06:37;27.37;;;15.33;;
20124;SDS011;10223;50.862;4.360;2024-03-22T04:09:04;32.53;;;16.10;;
20124;SDS011;10223;50.862;4.360;2024-03-22T04:11:30;26.57;;;13.37;;
20124;SDS011;10223;50.862;4.360;2024-03-22T04:13:57;29.30;;;17.07;;
20124;SDS011;10223;50.862;4.360;2024-03-22T04:16:23;29.00;;;15.90;;
20124;SDS011;10223;50.862;4.360;2024-03-22T04:18:52;28.30;;;15.40;;
20124;SDS011;10223;50.862;4.360;2024-03-22T04:21:18;25.73;;;14.67;;
20124;SDS011;10223;50.862;4.360;2024-03-22T04:23:47;29.90;;;15.93;;
20124;SDS011;10223;50.862;4.360;2024-03-22T04:26:13;29.27;;;14.80;;
20124;SDS011;10223;50.862;4.360;2024-03-22T04:28:41;28.73;;;15.70;;
20124;SDS011;10223;50.862;4.360;2024-03-22T04:31:08;25.90;;;14.43;;
20124;SDS011;10223;50.862;4.360;2024-03-22T04:33:35;29.70;;;15.30;;
20124;SDS011;10223;50.862;4.360;2024-03-22T04:36:02;27.27;;;15.47;;
20124;SDS011;10223;50.862;4.360;2024-03-22T04:38:30;28.67;;;14.67;;
20124;SDS011;10223;50.862;4.360;2024-03-22T04:41:01;29.23;;;15.57;;
20124;SDS011;10223;50.862;4.360;2024-03-22T04:43:28;24.27;;;14.03;;
20124;SDS011;10223;50.862;4.360;2024-03-22T04:45:58;27.40;;;13.77;;
20124;SDS011;10223;50.862;4.360;2024-03-22T04:48:24;33.77;;;14.70;;
20124;SDS011;10223;50.862;4.360;2024-03-22T04:50:51;29.07;;;14.40;;
20124;SDS011;10223;50.862;4.360;2024-03-22T04:53:18;25.47;;;14.07;;
20124;SDS011;10223;50.862;4.360;2024-03-22T04:55:46;31.73;;;13.90;;
20124;SDS011;10223;50.862;4.360;2024-03-22T04:58:15;26.93;;;14.43;;
20124;SDS011;10223;50.862;4.360;2024-03-22T05:00:44;24.77;;;12.07;;
20124;SDS011;10223;50.862;4.360;2024-03-22T05:03:11;28.10;;;13.63;;
20124;SDS011;10223;50.862;4.360;2024-03-22T05:05:38;21.80;;;13.17;;
20124;SDS011;10223;50.862;4.360;2024-03-22T05:08:05;26.37;;;12.73;;
20124;SDS011;10223;50.862;4.360;2024-03-22T05:10:33;23.93;;;13.40;;
20124;SDS011;10223;50.862;4.360;2024-03-22T05:12:59;28.10;;;14.23;;
20124;SDS011;10223;50.862;4.360;2024-03-22T05:15:27;25.23;;;13.80;;
20124;SDS011;10223;50.862;4.360;2024-03-22T05:17:53;24.33;;;15.07;;
20124;SDS011;10223;50.862;4.360;2024-03-22T05:20:22;25.87;;;13.37;;
20124;SDS011;10223;50.862;4.360;2024-03-22T05:22:48;27.97;;;14.07;;
20124;SDS011;10223;50.862;4.360;2024-03-22T05:25:17;26.87;;;14.57;;
20124;SDS011;10223;50.862;4.360;2024-03-22T05:27:43;28.07;;;15.47;;
20124;SDS011;10223;50.862;4.360;2024-03-22T05:30:11;25.33;;;13.23;;
20124;SDS011;10223;50.862;4.360;2024-03-22T05:32:39;27.00;;;14.53;;
20124;SDS011;10223;50.862;4.360;2024-03-22T05:35:09;24.47;;;13.30;;
20124;SDS011;10223;50.862;4.360;2024-03-22T05:37:38;31.27;;;15.27;;
20124;SDS011;10223;50.862;4.360;2024-03-22T05:40:05;25.83;;;14.33;;
20124;SDS011;10223;50.862;4.360;2024-03-22T05:42:32;25.50;;;14.00;;
20124;SDS011;10223;50.862;4.360;2024-03-22T05:44:59;31.57;;;14.37;;
20124;SDS011;10223;50.862;4.360;2024-03-22T05:47:25;25.53;;;13.90;;
20124;SDS011;10223;50.862;4.360;2024-03-22T05:49:53;25.00;;;12.50;;
20124;SDS011;10223;50.862;4.360;2024-03-22T05:52:19;21.00;;;12.03;;
20124;SDS011;10223;50.862;4.360;2024-03-22T05:54:46;23.00;;;13.97;;
20124;SDS011;10223;50.862;4.360;2024-03-22T05:57:15;28.63;;;13.53;;
20124;SDS011;10223;50.862;4.360;2024-03-22T05:59:44;23.93;;;12.13;;
20124;SDS011;10223;50.862;4.360;2024-03-22T06:02:10;26.00;;;13.93;;
20124;SDS011;10223;50.862;4.360;2024-03-22T06:04:37;22.23;;;12.00;;
20124;SDS011;10223;50.862;4.360;2024-03-22T06:07:07;23.50;;;13.00;;
20124;SDS011;10223;50.862;4.360;2024-03-22T06:09:37;25.40;;;14.70;;
20124;SDS011;10223;50.862;4.360;2024-03-22T06:12:10;31.00;;;16.50;;
20124;SDS011;10223;50.862;4.360;2024-03-22T06:14:37;26.57;;;14.87;;
20124;SDS011;10223;50.862;4.360;2024-03-22T06:17:05;27.47;;;13.43;;
20124;SDS011;10223;50.862;4.360;2024-03-22T06:19:32;31.37;;;14.63;;
20124;SDS011;10223;50.862;4.360;2024-03-22T06:21:58;29.27;;;15.70;;
20124;SDS011;10223;50.862;4.360;2024-03-22T06:24:27;32.47;;;16.60;;
20124;SDS011;10223;50.862;4.360;2024-03-22T06:26:53;27.30;;;13.63;;
20124;SDS011;10223;50.862;4.360;2024-03-22T06:29:20;30.03;;;13.50;;
20124;SDS011;10223;50.862;4.360;2024-03-22T06:31:45;27.53;;;15.07;;
20124;SDS011;10223;50.862;4.360;2024-03-22T06:34:13;35.20;;;14.63;;
20124;SDS011;10223;50.862;4.360;2024-03-22T06:36:38;31.60;;;13.93;;
20124;SDS011;10223;50.862;4.360;2024-03-22T06:39:05;32.73;;;15.60;;
20124;SDS011;10223;50.862;4.360;2024-03-22T06:41:34;32.00;;;14.83;;
20124;SDS011;10223;50.862;4.360;2024-03-22T06:44:02;31.80;;;15.20;;
20124;SDS011;10223;50.862;4.360;2024-03-22T06:46:28;31.83;;;14.73;;
20124;SDS011;10223;50.862;4.360;2024-03-22T06:48:57;31.33;;;14.80;;
20124;SDS011;10223;50.862;4.360;2024-03-22T06:51:23;30.73;;;15.43;;
20124;SDS011;10223;50.862;4.360;2024-03-22T06:53:50;32.33;;;14.23;;
20124;SDS011;10223;50.862;4.360;2024-03-22T06:56:22;30.47;;;13.83;;
20124;SDS011;10223;50.862;4.360;2024-03-22T06:58:51;37.00;;;14.77;;
20124;SDS011;10223;50.862;4.360;2024-03-22T07:01:17;30.57;;;14.33;;
20124;SDS011;10223;50.862;4.360;2024-03-22T07:03:45;32.17;;;14.27;;
20124;SDS011;10223;50.862;4.360;2024-03-22T07:06:13;49.70;;;15.87;;
20124;SDS011;10223;50.862;4.360;2024-03-22T07:08:40;28.17;;;13.57;;
20124;SDS011;10223;50.862;4.360;2024-03-22T07:11:06;29.07;;;12.63;;
20124;SDS011;10223;50.862;4.360;2024-03-22T07:13:33;38.40;;;11.33;;
20124;SDS011;10223;50.862;4.360;2024-03-22T07:16:04;21.73;;;10.77;;
20124;SDS011;10223;50.862;4.360;2024-03-22T07:18:31;34.97;;;13.10;;
20124;SDS011;10223;50.862;4.360;2024-03-22T07:20:57;20.70;;;11.13;;
20124;SDS011;10223;50.862;4.360;2024-03-22T07:23:28;21.43;;;10.40;;
20124;SDS011;10223;50.862;4.360;2024-03-22T07:25:54;27.03;;;11.97;;
20124;SDS011;10223;50.862;4.360;2024-03-22T07:28:24;39.93;;;13.37;;
20124;SDS011;10223;50.862;4.360;2024-03-22T07:30:50;22.07;;;11.60;;
20124;SDS011;10223;50.862;4.360;2024-03-22T07:33:20;25.07;;;11.10;;
20124;SDS011;10223;50.862;4.360;2024-03-22T07:35:46;21.53;;;11.33;;
20124;SDS011;10223;50.862;4.360;2024-03-22T07:38:13;31.63;;;15.80;;
20124;SDS011;10223;50.862;4.360;2024-03-22T07:40:41;25.17;;;12.20;;
20124;SDS011;10223;50.862;4.360;2024-03-22T07:43:08;34.10;;;11.97;;
20124;SDS011;10223;50.862;4.360;2024-03-22T07:45:34;23.83;;;12.37;;
20124;SDS011;10223;50.862;4.360;2024-03-22T07:48:02;24.07;;;11.47;;
20124;SDS011;10223;50.862;4.360;2024-03-22T07:50:29;23.27;;;11.10;;
20124;SDS011;10223;50.862;4.360;2024-03-22T07:52:56;21.00;;;8.40;;
20124;SDS011;10223;50.862;4.360;2024-03-22T07:55:23;18.73;;;9.60;;
20124;SDS011;10223;50.862;4.360;2024-03-22T07:57:50;19.47;;;9.13;;
20124;SDS011;10223;50.862;4.360;2024-03-22T08:00:16;15.60;;;9.07;;
20124;SDS011;10223;50.862;4.360;2024-03-22T08:02:43;20.27;;;8.77;;
20124;SDS011;10223;50.862;4.360;2024-03-22T08:05:09;23.93;;;10.60;;
20124;SDS011;10223;50.862;4.360;2024-03-22T08:07:40;17.87;;;9.13;;
20124;SDS011;10223;50.862;4.360;2024-03-22T08:10:06;17.27;;;9.23;;
20124;SDS011;10223;50.862;4.360;2024-03-22T08:12:34;19.03;;;8.57;;
20124;SDS011;10223;50.862;4.360;2024-03-22T08:15:03;18.77;;;8.33;;
20124;SDS011;10223;50.862;4.360;2024-03-22T08:17:30;18.83;;;8.13;;
20124;SDS011;10223;50.862;4.360;2024-03-22T08:19:58;19.10;;;9.47;;
20124;SDS011;10223;50.862;4.360;2024-03-22T08:22:25;21.50;;;10.00;;
20124;SDS011;10223;50.862;4.360;2024-03-22T08:24:53;27.47;;;9.77;;
20124;SDS011;10223;50.862;4.360;2024-03-22T08:27:22;16.43;;;8.60;;
20124;SDS011;10223;50.862;4.360;2024-03-22T08:29:48;17.23;;;10.00;;
20124;SDS011;10223;50.862;4.360;2024-03-22T08:32:16;28.77;;;12.10;;
20124;SDS011;10223;50.862;4.360;2024-03-22T08:34:42;22.07;;;11.33;;
20124;SDS011;10223;50.862;4.360;2024-03-22T08:37:12;24.83;;;12.77;;
20124;SDS011;10223;50.862;4.360;2024-03-22T08:39:38;26.97;;;13.10;;
20124;SDS011;10223;50.862;4.360;2024-03-22T08:42:10;30.73;;;13.23;;
20124;SDS011;10223;50.862;4.360;2024-03-22T08:44:36;29.10;;;14.13;;
20124;SDS011;10223;50.862;4.360;2024-03-22T08:47:04;28.27;;;14.40;;
20124;SDS011;10223;50.862;4.360;2024-03-22T08:49:30;28.37;;;14.60;;
20124;SDS011;10223;50.862;4.360;2024-03-22T08:52:01;26.83;;;14.50;;
20124;SDS011;10223;50.862;4.360;2024-03-22T08:54:27;29.50;;;15.17;;
20124;SDS011;10223;50.862;4.360;2024-03-22T08:56:54;31.27;;;16.17;;
20124;SDS011;10223;50.862;4.360;2024-03-22T08:59:21;24.33;;;14.17;;
20124;SDS011;10223;50.862;4.360;2024-03-22T09:01:49;28.50;;;15.90;;
20124;SDS011;10223;50.862;4.360;2024-03-22T09:04:16;26.07;;;14.60;;
20124;SDS011;10223;50.862;4.360;2024-03-22T09:06:46;27.17;;;14.07;;
20124;SDS011;10223;50.862;4.360;2024-03-22T09:09:12;28.87;;;15.90;;
20124;SDS011;10223;50.862;4.360;2024-03-22T09:11:39;31.60;;;15.77;;
20124;SDS011;10223;50.862;4.360;2024-03-22T09:14:08;26.10;;;13.03;;
20124;SDS011;10223;50.862;4.360;2024-03-22T09:16:36;32.37;;;16.33;;
20124;SDS011;10223;50.862;4.360;2024-03-22T09:19:02;31.43;;;14.23;;
20124;SDS011;10223;50.862;4.360;2024-03-22T09:21:29;28.53;;;13.63;;
20124;SDS011;10223;50.862;4.360;2024-03-22T09:23:56;31.37;;;15.73;;
20124;SDS011;10223;50.862;4.360;2024-03-22T09:26:23;25.87;;;14.23;;
20124;SDS011;10223;50.862;4.360;2024-03-22T09:28:49;32.07;;;14.50;;
20124;SDS011;10223;50.862;4.360;2024-03-22T09:31:17;29.40;;;15.70;;
20124;SDS011;10223;50.862;4.360;2024-03-22T09:33:44;31.93;;;14.47;;
20124;SDS011;10223;50.862;4.360;2024-03-22T09:36:11;30.07;;;15.43;;
20124;SDS011;10223;50.862;4.360;2024-03-22T09:38:37;24.83;;;13.80;;
20124;SDS011;10223;50.862;4.360;2024-03-22T09:41:06;27.77;;;13.87;;
20124;SDS011;10223;50.862;4.360;2024-03-22T09:43:34;28.37;;;14.33;;
20124;SDS011;10223;50.862;4.360;2024-03-22T09:46:01;24.30;;;15.20;;
20124;SDS011;10223;50.862;4.360;2024-03-22T09:48:28;23.93;;;13.20;;
20124;SDS011;10223;50.862;4.360;2024-03-22T09:50:57;25.20;;;13.10;;
20124;SDS011;10223;50.862;4.360;2024-03-22T09:53:23;23.33;;;12.80;;
20124;SDS011;10223;50.862;4.360;2024-03-22T09:55:53;22.37;;;12.87;;
20124;SDS011;10223;50.862;4.360;2024-03-22T09:58:22;32.27;;;14.10;;
20124;SDS011;10223;50.862;4.360;2024-03-22T10:00:49;30.70;;;14.20;;
20124;SDS011;10223;50.862;4.360;2024-03-22T10:03:15;28.10;;;13.27;;
20124;SDS011;10223;50.862;4.360;2024-03-22T10:05:44;21.40;;;13.70;;
20124;SDS011;10223;50.862;4.360;2024-03-22T10:08:12;33.50;;;13.70;;
20124;SDS011;10223;50.862;4.360;2024-03-22T10:10:39;29.93;;;13.43;;
20124;SDS011;10223;50.862;4.360;2024-03-22T10:13:06;30.10;;;14.07;;
20124;SDS011;10223;50.862;4.360;2024-03-22T10:15:36;32.97;;;11.80;;
20124;SDS011;10223;50.862;4.360;2024-03-22T10:18:03;27.77;;;13.33;;
20124;SDS011;10223;50.862;4.360;2024-03-22T10:20:34;34.77;;;14.63;;
20124;SDS011;10223;50.862;4.360;2024-03-22T10:23:00;27.97;;;13.87;;
20124;SDS011;10223;50.862;4.360;2024-03-22T10:25:29;32.73;;;13.70;;
20124;SDS011;10223;50.862;4.360;2024-03-22T10:27:55;30.20;;;15.00;;
20124;SDS011;10223;50.862;4.360;2024-03-22T10:30:24;29.40;;;14.20;;
20124;SDS011;10223;50.862;4.360;2024-03-22T10:32:52;29.03;;;13.73;;
20124;SDS011;10223;50.862;4.360;2024-03-22T10:35:19;27.23;;;13.77;;
20124;SDS011;10223;50.862;4.360;2024-03-22T10:37:45;28.60;;;14.03;;
20124;SDS011;10223;50.862;4.360;2024-03-22T10:40:12;27.30;;;13.33;;
20124;SDS011;10223;50.862;4.360;2024-03-22T10:42:43;33.40;;;13.33;;
20124;SDS011;10223;50.862;4.360;2024-03-22T10:45:11;29.73;;;14.53;;
20124;SDS011;10223;50.862;4.360;2024-03-22T10:47:47;32.70;;;13.57;;
20124;SDS011;10223;50.862;4.360;2024-03-22T10:50:17;33.10;;;13.63;;
20124;SDS011;10223;50.862;4.360;2024-03-22T10:52:45;26.83;;;14.00;;
20124;SDS011;10223;50.862;4.360;2024-03-22T10:55:19;24.93;;;13.67;;
20124;SDS011;10223;50.862;4.360;2024-03-22T10:57:50;27.57;;;13.67;;
20124;SDS011;10223;50.862;4.360;2024-03-22T11:00:17;24.27;;;13.80;;
20124;SDS011;10223;50.862;4.360;2024-03-22T11:02:52;22.00;;;13.23;;
20124;SDS011;10223;50.862;4.360;2024-03-22T11:05:20;26.83;;;14.33;;
20124;SDS011;10223;50.862;4.360;2024-03-22T11:07:46;23.83;;;14.20;;
20124;SDS011;10223;50.862;4.360;2024-03-22T11:10:13;22.97;;;13.50;;
20124;SDS011;10223;50.862;4.360;2024-03-22T11:12:39;23.00;;;13.20;;
20124;SDS011;10223;50.862;4.360;2024-03-22T11:15:09;25.33;;;14.27;;
20124;SDS011;10223;50.862;4.360;2024-03-22T11:17:37;25.03;;;13.20;;
20124;SDS011;10223;50.862;4.360;2024-03-22T11:20:04;25.20;;;13.47;;
20124;SDS011;10223;50.862;4.360;2024-03-22T11:22:31;21.50;;;13.23;;
20124;SDS011;10223;50.862;4.360;2024-03-22T11:24:58;23.07;;;13.20;;
20124;SDS011;10223;50.862;4.360;2024-03-22T11:27:24;19.90;;;12.20;;
20124;SDS011;10223;50.862;4.360;2024-03-22T11:29:51;19.80;;;11.93;;
20124;SDS011;10223;50.862;4.360;2024-03-22T11:32:21;20.80;;;10.80;;
20124;SDS011;10223;50.862;4.360;2024-03-22T11:34:53;18.70;;;11.17;;
20124;SDS011;10223;50.862;4.360;2024-03-22T11:37:19;29.17;;;11.27;;
20124;SDS011;10223;50.862;4.360;2024-03-22T11:39:46;22.97;;;10.87;;
20124;SDS011;10223;50.862;4.360;2024-03-22T11:42:13;21.37;;;11.27;;
20124;SDS011;10223;50.862;4.360;2024-03-22T11:44:40;24.47;;;11.37;;
20124;SDS011;10223;50.862;4.360;2024-03-22T11:47:07;25.47;;;11.73;;
20124;SDS011;10223;50.862;4.360;2024-03-22T11:49:36;26.77;;;11.40;;
20124;SDS011;10223;50.862;4.360;2024-03-22T11:52:02;20.10;;;10.93;;
20124;SDS011;10223;50.862;4.360;2024-03-22T11:54:29;22.63;;;11.50;;
20124;SDS011;10223;50.862;4.360;2024-03-22T11:56:55;19.73;;;10.63;;
20124;SDS011;10223;50.862;4.360;2024-03-22T11:59:23;26.47;;;10.53;;
20124;SDS011;10223;50.862;4.360;2024-03-22T12:01:51;30.10;;;11.70;;
20124;SDS011;10223;50.862;4.360;2024-03-22T12:04:18;27.00;;;11.57;;
20124;SDS011;10223;50.862;4.360;2024-03-22T12:06:49;24.10;;;11.70;;
20124;SDS011;10223;50.862;4.360;2024-03-22T12:09:18;24.97;;;11.43;;
20124;SDS011;10223;50.862;4.360;2024-03-22T12:11:44;22.27;;;11.67;;
20124;SDS011;10223;50.862;4.360;2024-03-22T12:14:11;20.37;;;10.47;;
20124;SDS011;10223;50.862;4.360;2024-03-22T12:16:36;21.90;;;10.90;;
20124;SDS011;10223;50.862;4.360;2024-03-22T12:19:03;18.57;;;10.17;;
20124;SDS011;10223;50.862;4.360;2024-03-22T12:21:31;26.97;;;10.47;;
20124;SDS011;10223;50.862;4.360;2024-03-22T12:24:00;15.73;;;9.27;;
20124;SDS011;10223;50.862;4.360;2024-03-22T12:26:26;19.07;;;8.70;;
20124;SDS011;10223;50.862;4.360;2024-03-22T12:28:57;21.87;;;8.40;;
20124;SDS011;10223;50.862;4.360;2024-03-22T12:31:23;24.60;;;8.40;;
20124;SDS011;10223;50.862;4.360;2024-03-22T12:33:50;18.37;;;9.10;;
20124;SDS011;10223;50.862;4.360;2024-03-22T12:36:19;16.77;;;9.00;;
20124;SDS011;10223;50.862;4.360;2024-03-22T12:38:46;24.67;;;9.60;;
20124;SDS011;10223;50.862;4.360;2024-03-22T12:41:16;19.37;;;9.07;;
20124;SDS011;10223;50.862;4.360;2024-03-22T12:43:43;21.53;;;10.27;;
20124;SDS011;10223;50.862;4.360;2024-03-22T12:46:09;18.93;;;9.57;;
20124;SDS011;10223;50.862;4.360;2024-03-22T12:48:36;18.27;;;9.30;;
20124;SDS011;10223;50.862;4.360;2024-03-22T12:51:02;19.70;;;9.30;;
20124;SDS011;10223;50.862;4.360;2024-03-22T12:53:29;16.83;;;8.77;;
20124;SDS011;10223;50.862;4.360;2024-03-22T12:55:56;20.73;;;8.77;;
20124;SDS011;10223;50.862;4.360;2024-03-22T12:58:24;19.47;;;8.80;;
20124;SDS011;10223;50.862;4.360;2024-03-22T13:00:53;26.00;;;10.27;;
20124;SDS011;10223;50.862;4.360;2024-03-22T13:03:19;19.20;;;8.57;;
20124;SDS011;10223;50.862;4.360;2024-03-22T13:05:51;17.90;;;8.40;;
20124;SDS011;10223;50.862;4.360;2024-03-22T13:08:17;16.50;;;7.53;;
20124;SDS011;10223;50.862;4.360;2024-03-22T13:10:46;16.37;;;7.63;;
20124;SDS011;10223;50.862;4.360;2024-03-22T13:13:13;11.13;;;6.87;;
20124;SDS011;10223;50.862;4.360;2024-03-22T13:15:43;23.07;;;7.33;;
20124;SDS011;10223;50.862;4.360;2024-03-22T13:18:09;15.50;;;7.57;;
20124;SDS011;10223;50.862;4.360;2024-03-22T13:20:36;15.63;;;7.40;;
20124;SDS011;10223;50.862;4.360;2024-03-22T13:23:02;19.20;;;7.33;;
20124;SDS011;10223;50.862;4.360;2024-03-22T13:25:29;16.33;;;8.00;;
20124;SDS011;10223;50.862;4.360;2024-03-22T13:27:55;17.77;;;8.03;;
20124;SDS011;10223;50.862;4.360;2024-03-22T13:30:24;18.57;;;7.13;;
20124;SDS011;10223;50.862;4.360;2024-03-22T13:32:55;15.23;;;6.93;;
20124;SDS011;10223;50.862;4.360;2024-03-22T13:35:22;25.03;;;7.60;;
20124;SDS011;10223;50.862;4.360;2024-03-22T13:37:48;17.47;;;7.30;;
20124;SDS011;10223;50.862;4.360;2024-03-22T13:40:15;18.53;;;7.63;;
20124;SDS011;10223;50.862;4.360;2024-03-22T13:42:41;16.90;;;7.43;;
20124;SDS011;10223;50.862;4.360;2024-03-22T13:45:08;20.60;;;8.23;;
20124;SDS011;10223;50.862;4.360;2024-03-22T13:47:37;16.20;;;7.57;;
20124;SDS011;10223;50.862;4.360;2024-03-22T13:50:09;15.20;;;7.27;;
20124;SDS011;10223;50.862;4.360;2024-03-22T13:52:35;14.00;;;7.53;;
20124;SDS011;10223;50.862;4.360;2024-03-22T13:55:06;18.80;;;7.23;;
20124;SDS011;10223;50.862;4.360;2024-03-22T13:57:33;17.33;;;7.07;;
20124;SDS011;10223;50.862;4.360;2024-03-22T14:00:00;22.53;;;8.23;;
20124;SDS011;10223;50.862;4.360;2024-03-22T14:02:31;17.90;;;8.20;;
20124;SDS011;10223;50.862;4.360;2024-03-22T14:04:58;12.13;;;7.47;;
20124;SDS011;10223;50.862;4.360;2024-03-22T14:07:26;17.67;;;7.37;;
20124;SDS011;10223;50.862;4.360;2024-03-22T14:09:53;18.97;;;7.13;;
20124;SDS011;10223;50.862;4.360;2024-03-22T14:12:19;20.07;;;7.33;;
20124;SDS011;10223;50.862;4.360;2024-03-22T14:14:46;18.83;;;6.13;;
20124;SDS011;10223;50.862;4.360;2024-03-22T14:17:11;16.57;;;7.20;;
20124;SDS011;10223;50.862;4.360;2024-03-22T14:19:39;18.13;;;7.20;;
20124;SDS011;10223;50.862;4.360;2024-03-22T14:22:05;30.50;;;8.13;;
20124;SDS011;10223;50.862;4.360;2024-03-22T14:24:34;27.63;;;7.37;;